KVNY

Los Angeles/Van Nuys Airport

Airport
ICAO code
KVNY
IATA Code
VNY
Summary
ICAO Region
NAM
ICAO Territory
Location

Van Nuys, California

Serving
Los Angeles
Elevation
802 ft
Coordinates
34° 12' 35" N , 118° 29' 24" W
KCC
Metar
KVNY 142243Z 16009KT 3SM R16R/5500VP6000FT -RA BR SCT016 BKN033 OVC041 12/11 A3007 RMK AO2 RAE01B17 P0002 T01220106 $

Van Nuys Airport is a public airport located in Van Nuys in the San Fernando Valley section of the city limits of Los Angeles, California, United States. No major commercial airlines fly into this airport; it is used by private, chartered, and small commercial aircraft.

Runways

Designator Length Width Surface Rops
16L/34R 1223 23 ASP Yes/Yes
16R/34L 2439 46 ASP Yes/Yes

Airport map

Aerial View

SKYbrary Partners:

Safety knowledge contributed by: